createdAt,value
2023-04-22T00:00:07.912Z,12.20
2023-04-22T00:01:07.890Z,12.12
2023-04-22T00:02:08.060Z,12.05
2023-04-22T00:03:07.947Z,11.99
2023-04-22T00:04:08.260Z,11.93
2023-04-22T00:05:07.948Z,11.89
2023-04-22T00:06:07.843Z,11.89
2023-04-22T00:07:07.825Z,11.94
2023-04-22T00:08:07.841Z,12.02
2023-04-22T00:09:07.775Z,12.11
2023-04-22T00:10:07.820Z,12.21
2023-04-22T00:11:07.753Z,12.29
2023-04-22T00:12:07.784Z,12.34
2023-04-22T00:13:07.796Z,12.42
2023-04-22T00:14:07.770Z,12.52
2023-04-22T00:15:07.686Z,12.57
2023-04-22T00:16:07.829Z,12.60
2023-04-22T00:17:07.699Z,12.63
2023-04-22T00:18:07.708Z,12.63
2023-04-22T00:19:07.682Z,12.63
2023-04-22T00:20:07.805Z,12.62
2023-04-22T00:21:07.647Z,12.60
2023-04-22T00:22:07.651Z,12.59
2023-04-22T00:23:07.624Z,12.59
2023-04-22T00:24:07.663Z,12.60
2023-04-22T00:25:07.589Z,12.60
2023-04-22T00:26:07.621Z,12.64
2023-04-22T00:27:07.560Z,12.63
2023-04-22T00:28:07.539Z,12.64
2023-04-22T00:29:07.499Z,12.64
2023-04-22T00:30:07.539Z,12.63
2023-04-22T00:31:07.543Z,12.62
2023-04-22T00:32:07.500Z,12.60
2023-04-22T00:33:07.538Z,12.60
2023-04-22T00:34:07.465Z,12.59
2023-04-22T00:35:07.462Z,12.59
2023-04-22T00:36:07.444Z,12.57
2023-04-22T00:37:07.453Z,12.59
2023-04-22T00:38:07.496Z,12.57
2023-04-22T00:39:07.422Z,12.54
2023-04-22T00:40:07.362Z,12.52
2023-04-22T00:41:07.374Z,12.49
2023-04-22T00:42:07.373Z,12.48
2023-04-22T00:43:07.341Z,12.45
2023-04-22T00:44:07.354Z,12.44
2023-04-22T00:45:07.343Z,12.39
2023-04-22T00:46:07.272Z,12.38
2023-04-22T00:47:07.428Z,12.34
2023-04-22T00:48:07.325Z,12.31
2023-04-22T00:49:07.299Z,12.26
2023-04-22T00:50:07.252Z,12.23
2023-04-22T00:51:07.280Z,12.20
2023-04-22T00:52:07.197Z,12.15
2023-04-22T00:53:07.215Z,12.12
2023-04-22T00:54:07.211Z,12.13
2023-04-22T00:55:07.244Z,12.09
2023-04-22T00:56:07.279Z,12.09
2023-04-22T00:57:07.188Z,12.06
2023-04-22T00:58:07.111Z,12.02
2023-04-22T00:59:07.163Z,11.97
2023-04-22T01:00:07.091Z,11.94
2023-04-22T01:01:07.161Z,11.94
2023-04-22T01:02:07.313Z,11.96
2023-04-22T01:03:07.369Z,11.90
2023-04-22T01:04:07.219Z,11.89
2023-04-22T01:05:07.063Z,11.83
2023-04-22T01:06:07.050Z,11.82
2023-04-22T01:07:07.026Z,11.77
2023-04-22T01:08:07.044Z,11.74
2023-04-22T01:09:07.032Z,11.70
2023-04-22T01:10:06.968Z,11.67
2023-04-22T01:11:07.030Z,11.65
2023-04-22T01:12:06.939Z,11.67
2023-04-22T01:13:06.995Z,11.65
2023-04-22T01:14:06.974Z,11.67
2023-04-22T01:15:06.977Z,11.68
2023-04-22T01:16:06.957Z,11.68
2023-04-22T01:17:07.063Z,11.70
2023-04-22T01:18:06.882Z,11.67
2023-04-22T01:19:06.952Z,11.64
2023-04-22T01:20:07.042Z,11.64
2023-04-22T01:21:06.874Z,11.61
2023-04-22T01:22:06.811Z,11.61
2023-04-22T01:23:06.852Z,11.57
2023-04-22T01:24:06.780Z,11.57
2023-04-22T01:25:06.797Z,11.54
2023-04-22T01:26:06.899Z,11.54
2023-04-22T01:27:06.765Z,11.53
2023-04-22T01:28:06.765Z,11.53
2023-04-22T01:29:06.772Z,11.53
2023-04-22T01:30:06.713Z,11.52
2023-04-22T01:31:06.747Z,11.52
2023-04-22T01:32:06.946Z,11.52
2023-04-22T01:33:06.698Z,11.52
2023-04-22T01:34:06.671Z,11.50
2023-04-22T01:35:06.667Z,11.47
2023-04-22T01:36:06.640Z,11.43
2023-04-22T01:37:06.686Z,11.41
2023-04-22T01:38:06.616Z,11.38
2023-04-22T01:39:06.627Z,11.34
2023-04-22T01:40:06.562Z,11.31
2023-04-22T01:41:06.590Z,11.28
2023-04-22T01:42:06.564Z,11.24
2023-04-22T01:43:06.569Z,11.17
2023-04-22T01:44:06.571Z,11.16
2023-04-22T01:45:06.547Z,11.13
2023-04-22T01:46:06.510Z,11.11
2023-04-22T01:47:06.532Z,11.10
2023-04-22T01:48:06.473Z,11.09
2023-04-22T01:49:06.467Z,11.07
2023-04-22T01:50:06.585Z,11.07
2023-04-22T01:51:06.474Z,11.03
2023-04-22T01:52:06.403Z,11.02
2023-04-22T01:53:06.417Z,11.02
2023-04-22T01:54:06.411Z,11.01
2023-04-22T01:55:06.396Z,10.96
2023-04-22T01:56:06.406Z,10.94
2023-04-22T01:57:06.389Z,10.91
2023-04-22T01:58:06.332Z,10.88
2023-04-22T01:59:06.368Z,10.88
2023-04-22T02:00:06.313Z,10.88
2023-04-22T02:01:06.358Z,10.86
2023-04-22T02:02:06.454Z,10.81
2023-04-22T02:03:06.401Z,10.77
2023-04-22T02:04:06.270Z,10.76
2023-04-22T02:05:06.404Z,10.78
2023-04-22T02:06:06.223Z,10.78
2023-04-22T02:07:06.236Z,10.81
2023-04-22T02:08:06.267Z,10.81
2023-04-22T02:09:06.237Z,10.80
2023-04-22T02:10:06.172Z,10.81
2023-04-22T02:11:06.213Z,10.83
2023-04-22T02:12:06.136Z,10.83
2023-04-22T02:13:06.147Z,10.80
2023-04-22T02:14:06.174Z,10.78
2023-04-22T02:15:06.120Z,10.77
2023-04-22T02:16:06.189Z,10.76
2023-04-22T02:17:06.135Z,10.74
2023-04-22T02:18:06.062Z,10.70
2023-04-22T02:19:06.092Z,10.71
2023-04-22T02:20:06.136Z,10.68
2023-04-22T02:21:06.057Z,10.65
2023-04-22T02:22:06.029Z,10.63
2023-04-22T02:23:06.042Z,10.60
2023-04-22T02:24:05.989Z,10.56
2023-04-22T02:25:05.990Z,10.53
2023-04-22T02:26:06.006Z,10.47
2023-04-22T02:27:05.959Z,10.43
2023-04-22T02:28:05.959Z,10.43
2023-04-22T02:29:05.954Z,10.42
2023-04-22T02:30:05.895Z,10.39
2023-04-22T02:31:05.974Z,10.39
2023-04-22T02:32:05.907Z,10.37
2023-04-22T02:33:05.960Z,10.40
2023-04-22T02:34:05.864Z,10.39
2023-04-22T02:35:05.856Z,10.37
2023-04-22T02:36:05.841Z,10.36
2023-04-22T02:37:05.855Z,10.36
2023-04-22T02:38:05.845Z,10.34
2023-04-22T02:39:05.832Z,10.28
2023-04-22T02:40:05.760Z,10.26
2023-04-22T02:41:05.782Z,10.26
2023-04-22T02:42:05.758Z,10.26
2023-04-22T02:43:05.749Z,10.26
2023-04-22T02:44:05.861Z,10.25
2023-04-22T02:45:05.748Z,10.26
2023-04-22T02:46:05.726Z,10.24
2023-04-22T02:47:05.750Z,10.21
2023-04-22T02:48:05.689Z,10.17
2023-04-22T02:49:05.674Z,10.12
2023-04-22T02:50:05.804Z,10.12
2023-04-22T02:51:05.651Z,10.09
2023-04-22T02:52:05.639Z,10.07
2023-04-22T02:53:05.643Z,10.04
2023-04-22T02:54:05.575Z,10.04
2023-04-22T02:55:05.590Z,10.00
2023-04-22T02:56:05.747Z,9.96
2023-04-22T02:57:05.583Z,9.93
2023-04-22T02:58:05.529Z,9.89
2023-04-22T02:59:05.552Z,9.89
2023-04-22T03:00:05.505Z,9.88
2023-04-22T03:01:05.553Z,9.86
2023-04-22T03:02:07.037Z,9.85
2023-04-22T03:03:05.568Z,9.81
2023-04-22T03:04:05.569Z,9.79
2023-04-22T03:05:05.477Z,9.81
2023-04-22T03:06:05.415Z,9.82
2023-04-22T03:07:05.450Z,9.82
2023-04-22T03:08:05.419Z,9.83
2023-04-22T03:09:05.406Z,9.83
2023-04-22T03:10:05.386Z,9.85
2023-04-22T03:11:05.410Z,9.83
2023-04-22T03:12:05.334Z,9.83
2023-04-22T03:13:05.367Z,9.82
2023-04-22T03:14:05.454Z,9.81
2023-04-22T03:15:05.327Z,9.82
2023-04-22T03:16:05.316Z,9.81
2023-04-22T03:17:05.323Z,9.79
2023-04-22T03:18:05.331Z,9.76
2023-04-22T03:19:05.290Z,9.78
2023-04-22T03:20:05.272Z,9.75
2023-04-22T03:21:05.247Z,9.73
2023-04-22T03:22:05.240Z,9.75
2023-04-22T03:23:05.211Z,9.73
2023-04-22T03:24:05.197Z,9.71
2023-04-22T03:25:05.207Z,9.70
2023-04-22T03:26:05.274Z,9.68
2023-04-22T03:27:05.157Z,9.66
2023-04-22T03:28:05.153Z,9.63
2023-04-22T03:29:05.159Z,9.60
2023-04-22T03:30:05.091Z,9.60
2023-04-22T03:31:05.142Z,9.57
2023-04-22T03:32:05.157Z,9.56
2023-04-22T03:33:05.090Z,9.57
2023-04-22T03:34:05.067Z,9.57
2023-04-22T03:35:05.050Z,9.57
2023-04-22T03:36:05.057Z,9.56
2023-04-22T03:37:05.064Z,9.57
2023-04-22T03:38:05.032Z,9.53
2023-04-22T03:39:05.028Z,9.53
2023-04-22T03:40:04.956Z,9.56
2023-04-22T03:41:04.981Z,9.56
2023-04-22T03:42:04.955Z,9.57
2023-04-22T03:43:04.956Z,9.58
2023-04-22T03:44:05.090Z,9.60
2023-04-22T03:45:04.945Z,9.61
2023-04-22T03:46:04.930Z,9.60
2023-04-22T03:47:04.919Z,9.60
2023-04-22T03:48:04.925Z,9.58
2023-04-22T03:49:04.865Z,9.57
2023-04-22T03:50:04.963Z,9.57
2023-04-22T03:51:04.852Z,9.57
2023-04-22T03:52:04.838Z,9.58
2023-04-22T03:53:04.837Z,9.61
2023-04-22T03:54:04.792Z,9.60
2023-04-22T03:55:04.811Z,9.63
2023-04-22T03:56:04.777Z,9.63
2023-04-22T03:57:04.763Z,9.61
2023-04-22T03:58:04.744Z,9.64
2023-04-22T03:59:04.754Z,9.68
2023-04-22T04:00:04.686Z,9.71
2023-04-22T04:01:04.707Z,9.73
2023-04-22T04:02:04.811Z,9.76
2023-04-22T04:03:04.927Z,9.75
2023-04-22T04:04:04.890Z,9.75
2023-04-22T04:05:04.973Z,9.78
2023-04-22T04:06:04.827Z,9.78
2023-04-22T04:07:04.646Z,9.79
2023-04-22T04:08:04.618Z,9.81
2023-04-22T04:09:04.608Z,9.81
2023-04-22T04:10:04.582Z,9.81
2023-04-22T04:11:04.581Z,9.81
2023-04-22T04:12:04.558Z,9.82
2023-04-22T04:13:04.590Z,9.82
2023-04-22T04:14:04.589Z,9.81
2023-04-22T04:15:04.519Z,9.81
2023-04-22T04:16:04.548Z,9.83
2023-04-22T04:17:04.516Z,9.83
2023-04-22T04:18:04.565Z,9.86
2023-04-22T04:19:04.516Z,9.86
2023-04-22T04:20:04.551Z,9.86
2023-04-22T04:21:04.442Z,9.89
2023-04-22T04:22:04.425Z,9.86
2023-04-22T04:23:04.404Z,9.86
2023-04-22T04:24:04.427Z,9.88
2023-04-22T04:25:04.406Z,9.86
2023-04-22T04:26:04.378Z,9.85
2023-04-22T04:27:04.401Z,9.85
2023-04-22T04:28:04.314Z,9.83
2023-04-22T04:29:04.330Z,9.85
2023-04-22T04:30:04.314Z,9.83
2023-04-22T04:31:04.378Z,9.83
2023-04-22T04:32:04.378Z,9.85
2023-04-22T04:33:04.459Z,9.83
2023-04-22T04:34:04.268Z,9.83
2023-04-22T04:35:04.247Z,9.83
2023-04-22T04:36:04.225Z,9.83
2023-04-22T04:37:04.288Z,9.85
2023-04-22T04:38:04.292Z,9.85
2023-04-22T04:39:04.212Z,9.86
2023-04-22T04:40:04.148Z,9.85
2023-04-22T04:41:04.175Z,9.88
2023-04-22T04:42:04.144Z,9.88
2023-04-22T04:43:04.142Z,9.86
2023-04-22T04:44:04.153Z,9.83
2023-04-22T04:45:04.136Z,9.83
2023-04-22T04:46:04.101Z,9.85
2023-04-22T04:47:04.268Z,9.83
2023-04-22T04:48:04.129Z,9.82
2023-04-22T04:49:04.052Z,9.88
2023-04-22T04:50:04.079Z,9.89
2023-04-22T04:51:04.026Z,9.93
2023-04-22T04:52:04.015Z,9.93
2023-04-22T04:53:04.056Z,9.93
2023-04-22T04:54:04.017Z,9.94
2023-04-22T04:55:03.948Z,9.97
2023-04-22T04:56:04.117Z,9.97
2023-04-22T04:57:03.949Z,10.00
2023-04-22T04:58:03.931Z,10.03
2023-04-22T04:59:03.924Z,10.06
2023-04-22T05:00:03.912Z,10.10
2023-04-22T05:01:03.872Z,10.14
2023-04-22T05:02:04.031Z,10.19
2023-04-22T05:03:04.011Z,10.21
2023-04-22T05:04:04.154Z,10.25
2023-04-22T05:05:03.910Z,10.28
2023-04-22T05:06:03.851Z,10.32
2023-04-22T05:07:03.798Z,10.34
2023-04-22T05:08:03.958Z,10.37
2023-04-22T05:09:03.793Z,10.40
2023-04-22T05:10:03.777Z,10.44
2023-04-22T05:11:03.769Z,10.46
2023-04-22T05:12:03.765Z,10.51
2023-04-22T05:13:04.458Z,10.52
2023-04-22T05:14:03.784Z,10.53
2023-04-22T05:15:03.696Z,10.58
2023-04-22T05:16:03.776Z,10.59
2023-04-22T05:17:03.679Z,10.62
2023-04-22T05:18:03.748Z,10.65
2023-04-22T05:19:03.643Z,10.71
2023-04-22T05:20:03.791Z,10.74
2023-04-22T05:21:03.638Z,10.77
2023-04-22T05:22:03.630Z,10.83
2023-04-22T05:23:03.617Z,10.86
2023-04-22T05:24:03.584Z,10.89
2023-04-22T05:25:03.547Z,10.94
2023-04-22T05:26:03.644Z,11.01
2023-04-22T05:27:03.523Z,11.06
2023-04-22T05:28:03.561Z,11.11
2023-04-22T05:29:03.527Z,11.16
2023-04-22T05:30:03.515Z,11.17
2023-04-22T05:31:03.502Z,11.20
2023-04-22T05:32:03.545Z,11.24
2023-04-22T05:33:03.529Z,11.28
2023-04-22T05:34:03.496Z,11.29
2023-04-22T05:35:03.451Z,11.32
2023-04-22T05:36:03.432Z,11.32
2023-04-22T05:37:03.386Z,11.34
2023-04-22T05:38:03.463Z,11.35
2023-04-22T05:39:03.352Z,11.36
2023-04-22T05:40:03.399Z,11.38
2023-04-22T05:41:03.391Z,11.38
2023-04-22T05:42:03.355Z,11.38
2023-04-22T05:43:03.327Z,11.38
2023-04-22T05:44:03.440Z,11.38
2023-04-22T05:45:03.308Z,11.38
2023-04-22T05:46:03.370Z,11.38
2023-04-22T05:47:03.264Z,11.39
2023-04-22T05:48:03.312Z,11.39
2023-04-22T05:49:03.258Z,11.41
2023-04-22T05:50:03.276Z,11.41
2023-04-22T05:51:03.229Z,11.43
2023-04-22T05:52:03.218Z,11.44
2023-04-22T05:53:03.176Z,11.49
2023-04-22T05:54:03.198Z,11.50
2023-04-22T05:55:03.145Z,11.52
2023-04-22T05:56:03.297Z,11.54
2023-04-22T05:57:03.148Z,11.57
2023-04-22T05:58:03.130Z,11.59
2023-04-22T05:59:03.124Z,11.64
2023-04-22T06:00:03.109Z,11.67
2023-04-22T06:01:03.064Z,11.71
2023-04-22T06:02:03.209Z,11.77
2023-04-22T06:03:03.245Z,11.83
2023-04-22T06:04:03.387Z,11.90
2023-04-22T06:05:03.202Z,12.01
2023-04-22T06:06:03.075Z,12.09
2023-04-22T06:07:02.980Z,12.20
2023-04-22T06:08:03.149Z,12.30
2023-04-22T06:09:02.980Z,12.44
2023-04-22T06:11:03.990Z,12.62
2023-04-22T06:12:02.943Z,12.69
2023-04-22T06:13:02.912Z,12.78
2023-04-22T06:14:02.989Z,12.81
2023-04-22T06:15:02.894Z,12.82
2023-04-22T06:16:02.937Z,12.87
2023-04-22T06:17:02.895Z,12.89
2023-04-22T06:18:02.907Z,12.95
2023-04-22T06:19:02.863Z,12.97
2023-04-22T06:20:02.965Z,13.02
2023-04-22T06:21:02.814Z,13.09
2023-04-22T06:22:02.839Z,13.15
2023-04-22T06:23:02.794Z,13.20
2023-04-22T06:24:02.781Z,13.25
2023-04-22T06:25:02.748Z,13.30
2023-04-22T06:26:02.904Z,13.37
2023-04-22T06:27:02.723Z,13.40
2023-04-22T06:28:02.770Z,13.41
2023-04-22T06:29:02.719Z,13.46
2023-04-22T06:30:02.721Z,13.51
2023-04-22T06:31:02.765Z,13.58
2023-04-22T06:32:02.723Z,13.59
2023-04-22T06:33:02.680Z,13.65
2023-04-22T06:34:02.708Z,13.74
2023-04-22T06:35:02.615Z,13.79
2023-04-22T06:36:02.660Z,13.88
2023-04-22T06:37:02.611Z,13.96
2023-04-22T06:38:02.634Z,14.04
2023-04-22T06:39:02.579Z,14.14
2023-04-22T06:40:02.603Z,14.21
2023-04-22T06:41:02.569Z,14.32
2023-04-22T06:42:02.549Z,14.35
2023-04-22T06:43:02.529Z,14.43
2023-04-22T06:44:02.561Z,14.46
2023-04-22T06:45:02.487Z,14.50
2023-04-22T06:46:02.539Z,14.53
2023-04-22T06:47:02.517Z,14.61
2023-04-22T06:48:02.490Z,14.68
2023-04-22T06:49:02.454Z,14.72
2023-04-22T06:50:02.546Z,14.75
2023-04-22T06:51:02.474Z,14.83
2023-04-22T06:52:02.409Z,14.87
2023-04-22T06:53:02.410Z,14.94
2023-04-22T06:54:02.409Z,14.99
2023-04-22T06:55:02.346Z,15.11
2023-04-22T06:56:02.440Z,15.19
2023-04-22T06:57:02.347Z,15.26
2023-04-22T06:58:02.333Z,15.35
2023-04-22T06:59:02.319Z,15.38
2023-04-22T07:00:02.313Z,15.38
2023-04-22T07:01:02.268Z,15.41
2023-04-22T07:02:02.527Z,15.48
2023-04-22T07:03:02.307Z,15.57
2023-04-22T07:04:02.297Z,15.59
2023-04-22T07:05:02.238Z,15.63
2023-04-22T07:06:02.234Z,15.68
2023-04-22T07:07:02.207Z,15.81
2023-04-22T07:08:02.231Z,15.85
2023-04-22T07:09:02.163Z,15.93
2023-04-22T07:10:02.194Z,15.99
2023-04-22T07:11:02.159Z,16.07
2023-04-22T07:12:02.144Z,16.20
2023-04-22T07:13:02.100Z,16.33
2023-04-22T07:14:02.175Z,16.31
2023-04-22T07:15:02.084Z,16.37
2023-04-22T07:16:02.172Z,16.40
2023-04-22T07:17:02.073Z,16.45
2023-04-22T07:18:02.074Z,16.45
2023-04-22T07:19:02.050Z,16.45
2023-04-22T07:20:02.063Z,16.48
2023-04-22T07:21:02.013Z,16.48
2023-04-22T07:22:02.037Z,16.49
2023-04-22T07:23:01.978Z,16.53
2023-04-22T07:24:02.022Z,16.60
2023-04-22T07:25:01.990Z,16.83
2023-04-22T07:26:01.991Z,17.03
2023-04-22T07:27:01.908Z,17.10
2023-04-22T07:28:01.949Z,17.14
2023-04-22T07:29:01.917Z,17.15
2023-04-22T07:30:01.901Z,17.28
2023-04-22T07:31:01.887Z,17.29
2023-04-22T07:32:02.054Z,17.28
2023-04-22T07:33:01.887Z,17.36
2023-04-22T07:34:01.876Z,17.50
2023-04-22T07:35:01.811Z,17.53
2023-04-22T07:36:01.857Z,17.57
2023-04-22T07:37:01.807Z,17.70
2023-04-22T07:38:01.826Z,17.87
2023-04-22T07:39:01.781Z,17.99
2023-04-22T07:40:01.765Z,18.17
2023-04-22T07:41:01.724Z,18.36
2023-04-22T07:42:01.775Z,18.52
2023-04-22T07:43:01.723Z,18.73
2023-04-22T07:44:01.770Z,18.83
2023-04-22T07:45:01.673Z,18.91
2023-04-22T07:46:01.736Z,18.94
2023-04-22T07:47:01.656Z,19.05
2023-04-22T07:48:01.748Z,19.21
2023-04-22T07:49:01.713Z,19.35
2023-04-22T07:50:01.799Z,19.50
2023-04-22T07:51:01.653Z,19.60
2023-04-22T07:52:01.606Z,19.68
2023-04-22T07:53:01.570Z,20.06
2023-04-22T07:54:01.620Z,20.09
2023-04-22T07:55:01.539Z,19.97
2023-04-22T07:56:02.220Z,19.98
2023-04-22T07:57:01.538Z,20.09
2023-04-22T07:58:01.529Z,20.38
2023-04-22T07:59:01.513Z,20.84
2023-04-22T08:00:01.537Z,21.16
2023-04-22T08:01:01.484Z,21.21
2023-04-22T08:02:01.642Z,20.83
2023-04-22T08:03:01.558Z,20.49
2023-04-22T08:04:01.819Z,20.33
2023-04-22T08:05:01.591Z,20.05
2023-04-22T08:06:01.428Z,19.95
2023-04-22T08:07:01.922Z,20.02
2023-04-22T08:08:01.507Z,20.20
2023-04-22T08:09:01.348Z,20.39
2023-04-22T08:10:01.449Z,20.59
2023-04-22T08:11:01.345Z,20.79
2023-04-22T08:12:01.370Z,20.89
2023-04-22T08:13:01.340Z,21.24
2023-04-22T08:14:01.431Z,21.23
2023-04-22T08:15:01.294Z,21.02
2023-04-22T08:16:01.374Z,20.53
2023-04-22T08:17:01.278Z,20.21
2023-04-22T08:18:01.344Z,20.31
2023-04-22T08:19:01.256Z,20.56
2023-04-22T08:20:01.353Z,20.47
2023-04-22T08:21:01.196Z,20.18
2023-04-22T08:22:01.242Z,20.28
2023-04-22T08:23:01.181Z,20.10
2023-04-22T08:24:01.208Z,20.06
2023-04-22T08:25:01.164Z,20.23
2023-04-22T08:26:01.282Z,20.46
2023-04-22T08:27:01.150Z,20.46
2023-04-22T08:28:01.147Z,20.69
2023-04-22T08:29:01.123Z,20.91
2023-04-22T08:30:01.131Z,20.99
2023-04-22T08:31:01.245Z,21.02
2023-04-22T08:32:01.110Z,21.19
2023-04-22T08:33:01.064Z,21.21
2023-04-22T08:34:01.080Z,21.36
2023-04-22T08:35:04.959Z,21.64
2023-04-22T08:36:01.066Z,21.91
2023-04-22T08:37:01.026Z,22.07
2023-04-22T08:38:01.123Z,22.27
2023-04-22T08:39:00.999Z,22.47
2023-04-22T08:40:00.980Z,22.68
2023-04-22T08:41:00.930Z,22.99
2023-04-22T08:42:00.971Z,23.11
2023-04-22T08:43:00.914Z,23.19
2023-04-22T08:44:00.974Z,23.31
2023-04-22T08:45:00.902Z,23.12
2023-04-22T08:46:00.902Z,23.08
2023-04-22T08:47:02.633Z,23.15
2023-04-22T08:48:00.934Z,23.24
2023-04-22T08:49:00.862Z,23.29
2023-04-22T08:50:00.883Z,23.15
2023-04-22T08:51:00.829Z,23.31
2023-04-22T08:52:00.824Z,23.32
2023-04-22T08:53:00.765Z,23.35
2023-04-22T08:54:00.826Z,23.38
2023-04-22T08:55:00.755Z,23.45
2023-04-22T08:56:00.839Z,23.75
2023-04-22T08:57:00.749Z,23.95
2023-04-22T08:58:00.734Z,24.05
2023-04-22T08:59:00.716Z,24.23
2023-04-22T09:00:00.724Z,24.34
2023-04-22T09:01:00.671Z,24.00
2023-04-22T09:02:00.797Z,23.85
2023-04-22T09:03:00.760Z,23.89
2023-04-22T09:04:00.768Z,23.67
2023-04-22T09:05:00.650Z,23.49
2023-04-22T09:06:00.629Z,23.35
2023-04-22T09:07:00.617Z,23.22
2023-04-22T09:08:00.724Z,23.27
2023-04-22T09:09:00.614Z,23.29
2023-04-22T09:10:00.559Z,23.27
2023-04-22T09:11:00.598Z,23.35
2023-04-22T09:12:00.516Z,23.38
2023-04-22T09:13:00.528Z,23.07
2023-04-22T09:14:00.579Z,23.43
2023-04-22T09:15:00.515Z,23.83
2023-04-22T09:16:00.539Z,24.16
2023-04-22T09:17:00.501Z,24.35
2023-04-22T09:18:00.504Z,24.52
2023-04-22T09:19:00.467Z,24.32
2023-04-22T09:20:00.472Z,24.10
2023-04-22T09:21:00.452Z,24.08
2023-04-22T09:22:00.392Z,24.19
2023-04-22T09:23:00.422Z,24.39
2023-04-22T09:24:00.371Z,24.69
2023-04-22T09:25:00.381Z,24.83
2023-04-22T09:26:00.403Z,24.88
2023-04-22T09:27:00.383Z,25.06
2023-04-22T09:28:00.344Z,24.94
2023-04-22T09:29:00.350Z,24.85
2023-04-22T09:30:00.278Z,24.77
2023-04-22T09:31:00.321Z,24.54
2023-04-22T09:32:00.354Z,24.34
2023-04-22T09:33:00.350Z,24.26
2023-04-22T09:34:00.253Z,24.27
2023-04-22T09:35:00.268Z,24.20
2023-04-22T09:36:00.207Z,23.52
2023-04-22T09:37:00.266Z,23.17
2023-04-22T09:38:00.243Z,22.93
2023-04-22T09:39:00.202Z,22.74
2023-04-22T09:40:00.205Z,22.80
2023-04-22T09:41:00.185Z,22.77
2023-04-22T09:42:00.116Z,22.78
2023-04-22T09:43:00.160Z,22.78
2023-04-22T09:44:00.209Z,22.75
2023-04-22T09:45:01.836Z,22.60
2023-04-22T09:46:00.174Z,22.50
2023-04-22T09:47:00.074Z,22.41
2023-04-22T09:48:00.135Z,22.43
2023-04-22T09:49:00.124Z,22.46
2023-04-22T09:50:00.041Z,22.53
2023-04-22T09:51:00.024Z,22.62
2023-04-22T09:52:00.015Z,22.75
2023-04-22T09:52:59.970Z,22.96
2023-04-22T09:53:59.958Z,23.14
2023-04-22T09:55:00.000Z,23.27
2023-04-22T09:56:00.060Z,23.29
2023-04-22T09:56:59.946Z,23.50
2023-04-22T09:57:59.940Z,24.05
2023-04-22T09:58:59.921Z,24.27
2023-04-22T09:59:59.910Z,24.35
2023-04-22T10:00:59.972Z,24.56
2023-04-22T10:01:59.884Z,24.68
2023-04-22T10:02:59.977Z,25.12
2023-04-22T10:03:59.921Z,25.32
2023-04-22T10:04:59.840Z,25.50
2023-04-22T10:05:59.834Z,25.94
2023-04-22T10:06:59.807Z,25.53
2023-04-22T10:07:59.847Z,24.87
2023-04-22T10:08:59.811Z,24.32
2023-04-22T10:09:59.757Z,24.10
2023-04-22T10:10:59.798Z,24.04
2023-04-22T10:11:59.721Z,24.07
2023-04-22T10:12:59.734Z,24.24
2023-04-22T10:13:59.841Z,24.26
2023-04-22T10:14:59.710Z,24.32
2023-04-22T10:15:59.705Z,24.45
2023-04-22T10:16:59.829Z,24.57
2023-04-22T10:17:59.675Z,24.37
2023-04-22T10:18:59.683Z,24.56
2023-04-22T10:19:59.645Z,24.38
2023-04-22T10:20:59.634Z,24.32
2023-04-22T10:21:59.620Z,24.39
2023-04-22T10:22:59.632Z,24.61
2023-04-22T10:23:59.570Z,25.00
2023-04-22T10:24:59.581Z,24.87
2023-04-22T10:25:59.701Z,24.68
2023-04-22T10:26:59.726Z,24.68
2023-04-22T10:27:59.541Z,24.94
2023-04-22T10:28:59.569Z,25.15
2023-04-22T10:29:59.484Z,25.37
2023-04-22T10:30:59.568Z,25.61
2023-04-22T10:31:59.507Z,25.49
2023-04-22T10:32:59.535Z,26.17
2023-04-22T10:33:59.467Z,26.29
2023-04-22T10:34:59.453Z,26.46
2023-04-22T10:35:59.565Z,26.76
2023-04-22T10:37:02.233Z,26.84
2023-04-22T10:37:59.410Z,26.52
2023-04-22T10:38:59.419Z,25.89
2023-04-22T10:39:59.387Z,25.64
2023-04-22T10:40:59.402Z,25.53
2023-04-22T10:41:59.334Z,25.74
2023-04-22T10:42:59.375Z,25.97
2023-04-22T10:43:59.357Z,26.09
2023-04-22T10:44:59.314Z,26.39
2023-04-22T10:45:59.326Z,26.27
2023-04-22T10:46:59.292Z,26.21
2023-04-22T10:47:59.331Z,26.02
2023-04-22T10:48:59.294Z,26.17
2023-04-22T10:49:59.273Z,26.50
2023-04-22T10:50:59.279Z,26.58
2023-04-22T10:51:59.219Z,26.39
2023-04-22T10:52:59.228Z,26.58
2023-04-22T10:53:59.209Z,26.58
2023-04-22T10:54:59.237Z,26.72
2023-04-22T10:55:59.199Z,26.87
2023-04-22T10:56:59.217Z,27.04
2023-04-22T10:57:59.153Z,27.26
2023-04-22T10:58:59.163Z,27.13
2023-04-22T10:59:59.121Z,26.96
2023-04-22T11:00:59.159Z,26.67
2023-04-22T11:01:59.215Z,26.58
2023-04-22T11:02:59.212Z,26.05
2023-04-22T11:03:59.126Z,26.04
2023-04-22T11:04:59.055Z,25.94
2023-04-22T11:05:59.051Z,25.82
2023-04-22T11:06:59.031Z,25.87
2023-04-22T11:07:59.052Z,25.91
2023-04-22T11:08:59.052Z,26.05
2023-04-22T11:09:58.965Z,25.90
2023-04-22T11:10:59.000Z,26.02
2023-04-22T11:11:58.946Z,25.72
2023-04-22T11:12:58.951Z,25.31
2023-04-22T11:13:59.054Z,25.50
2023-04-22T11:14:58.973Z,25.83
2023-04-22T11:15:58.950Z,25.83
2023-04-22T11:16:58.917Z,25.47
2023-04-22T11:17:58.958Z,24.76
2023-04-22T11:18:58.893Z,24.16
2023-04-22T11:19:58.954Z,23.77
2023-04-22T11:20:58.845Z,23.49
2023-04-22T11:21:58.851Z,23.42
2023-04-22T11:22:58.810Z,23.39
2023-04-22T11:23:58.809Z,23.53
2023-04-22T11:24:58.842Z,23.75
2023-04-22T11:25:58.838Z,23.71
2023-04-22T11:26:58.776Z,23.57
2023-04-22T11:27:58.738Z,23.52
2023-04-22T11:28:58.760Z,23.50
2023-04-22T11:29:58.698Z,23.65
2023-04-22T11:30:58.726Z,23.85
2023-04-22T11:31:58.762Z,24.19
2023-04-22T11:32:58.696Z,24.38
2023-04-22T11:33:58.678Z,24.50
2023-04-22T11:34:58.672Z,24.77
2023-04-22T11:35:58.644Z,25.10
2023-04-22T11:36:58.644Z,25.35
2023-04-22T11:37:58.607Z,25.72
2023-04-22T11:38:58.629Z,26.08
2023-04-22T11:40:58.583Z,26.55
2023-04-22T11:41:58.556Z,26.57
2023-04-22T11:42:58.573Z,26.69
2023-04-22T11:43:58.612Z,26.91
2023-04-22T11:44:58.525Z,26.74
2023-04-22T11:45:58.576Z,26.54
2023-04-22T11:46:58.522Z,26.77
2023-04-22T11:47:58.558Z,27.29
2023-04-22T11:48:58.483Z,27.66
2023-04-22T11:49:58.454Z,27.88
2023-04-22T11:50:58.482Z,27.89
2023-04-22T11:51:58.395Z,27.73
2023-04-22T11:52:58.411Z,27.33
2023-04-22T11:53:58.396Z,27.09
2023-04-22T11:54:58.385Z,26.67
2023-04-22T11:55:58.471Z,26.12
2023-04-22T11:56:58.379Z,26.08
2023-04-22T11:57:58.324Z,26.27
2023-04-22T11:58:58.329Z,26.22
2023-04-22T11:59:58.325Z,26.36
2023-04-22T12:00:58.324Z,26.57
2023-04-22T12:01:58.317Z,26.59
2023-04-22T12:02:58.535Z,26.69
2023-04-22T12:03:58.367Z,27.13
2023-04-22T12:04:58.264Z,27.13
2023-04-22T12:05:58.245Z,27.14
2023-04-22T12:06:58.223Z,27.16
2023-04-22T12:07:58.328Z,27.17
2023-04-22T12:08:58.230Z,26.87
2023-04-22T12:09:58.160Z,26.35
2023-04-22T12:10:58.199Z,26.15
2023-04-22T12:11:58.125Z,26.01
2023-04-22T12:12:58.175Z,25.91
2023-04-22T12:13:58.169Z,25.84
2023-04-22T12:14:58.134Z,25.99
2023-04-22T12:15:58.104Z,25.98
2023-04-22T12:16:58.136Z,26.20
2023-04-22T12:17:58.069Z,26.57
2023-04-22T12:18:58.105Z,27.09
2023-04-22T12:19:58.052Z,27.50
2023-04-22T12:20:58.052Z,27.39
2023-04-22T12:21:58.057Z,27.17
2023-04-22T12:22:58.012Z,26.96
2023-04-22T12:23:58.001Z,26.80
2023-04-22T12:24:58.010Z,26.55
2023-04-22T12:25:58.077Z,26.32
2023-04-22T12:26:57.996Z,26.08
2023-04-22T12:27:58.859Z,26.36
2023-04-22T12:28:58.025Z,26.68
2023-04-22T12:29:57.926Z,26.86
2023-04-22T12:30:57.959Z,27.06
2023-04-22T12:31:57.912Z,27.26
2023-04-22T12:32:57.902Z,27.33
2023-04-22T12:33:57.945Z,27.48
2023-04-22T12:34:57.857Z,27.70
2023-04-22T12:35:57.848Z,27.79
2023-04-22T12:36:57.854Z,27.89
2023-04-22T12:37:57.917Z,27.79
2023-04-22T12:38:57.834Z,27.58
2023-04-22T12:39:57.817Z,27.26
2023-04-22T12:40:57.783Z,26.69
2023-04-22T12:41:57.793Z,26.37
2023-04-22T12:42:57.768Z,26.31
2023-04-22T12:43:57.865Z,26.49
2023-04-22T12:44:57.756Z,26.67
2023-04-22T12:45:57.713Z,26.94
2023-04-22T12:48:21.309Z,27.24
2023-04-22T12:48:26.998Z,27.13
2023-04-22T12:49:26.109Z,27.11
2023-04-22T12:50:26.000Z,26.68
2023-04-22T12:51:26.051Z,26.59
2023-04-22T12:52:25.981Z,26.77
2023-04-22T12:53:25.979Z,26.15
2023-04-22T12:54:25.948Z,25.69
2023-04-22T12:55:25.994Z,25.59
2023-04-22T12:56:25.919Z,25.90
2023-04-22T12:57:25.930Z,26.09
2023-04-22T12:58:25.865Z,26.55